Time;durP1;ratioP1;P1;durP2;ratioP2;P2;SDS_P1;SDS_P2;PMS_P1;PMS_P2;Temp;Humidity;BMP_temperature;BMP_pressure;BME280_temperature;BME280_humidity;BME280_pressure;Samples;Min_cycle;Max_cycle;Signal;HPM_P1;HPM_P2
2022/05/27 05:41:59;;;;;;;7.13;2.25;;;22.50;99.90;;;;;;6151812;28;89985;-63
2022/05/27 05:45:01;;;;;;;6.63;2.47;;;22.50;99.90;;;;;;6156024;28;89301;-65
2022/05/27 05:48:03;;;;;;;2.83;2.08;;;22.50;99.90;;;;;;6160370;28;89258;-65
2022/05/27 05:51:05;;;;;;;2.75;1.90;;;22.50;99.90;;;;;;6157186;28;89340;-66
2022/05/27 05:54:07;;;;;;;3.25;2.00;;;22.50;99.90;;;;;;6154452;28;89133;-65
2022/05/27 05:57:11;;;;;;;3.20;2.17;;;22.50;99.90;;;;;;6150889;28;89189;-65
2022/05/27 06:00:16;;;;;;;3.22;2.08;;;22.50;99.40;;;;;;6157956;28;89415;-65
2022/05/27 06:03:19;;;;;;;1.98;1.77;;;22.50;98.30;;;;;;6155723;28;88377;-64
2022/05/27 06:06:21;;;;;;;5.20;2.50;;;22.50;96.70;;;;;;6155520;28;89259;-64
2022/05/27 06:09:25;;;;;;;3.20;2.10;;;22.50;99.90;;;;;;6160197;28;89284;-64
2022/05/27 06:12:33;;;;;;;2.97;2.00;;;22.50;97.20;;;;;;6147647;28;90610;-64
2022/05/27 06:15:35;;;;;;;4.00;2.13;;;22.50;97.00;;;;;;6153294;28;87986;-63
2022/05/27 06:18:37;;;;;;;3.60;2.17;;;22.50;94.90;;;;;;6159446;28;89102;-64
2022/05/27 06:21:39;;;;;;;2.40;1.95;;;22.50;94.10;;;;;;6157443;28;87978;-64
2022/05/27 06:24:41;;;;;;;2.42;1.90;;;22.50;94.00;;;;;;6152378;28;89039;-64
2022/05/27 06:27:44;;;;;;;2.60;1.95;;;22.50;93.70;;;;;;6149156;28;89377;-64
2022/05/27 06:37:25;;;;;;;3.22;1.80;;;22.50;92.70;;;;;;6158992;28;87173;-64
2022/05/27 06:40:26;;;;;;;2.40;1.92;;;22.50;92.60;;;;;;6157077;28;87999;-64
2022/05/27 06:43:31;;;;;;;2.28;1.60;;;22.50;92.40;;;;;;6133859;28;90039;-64
2022/05/27 06:46:34;;;;;;;2.20;1.80;;;22.50;92.20;;;;;;6127449;28;89344;-64
2022/05/27 06:49:38;;;;;;;1.70;1.50;;;22.50;92.20;;;;;;6130523;28;89123;-65
2022/05/27 06:52:41;;;;;;;2.38;1.80;;;22.50;92.20;;;;;;6135853;28;89098;-64
2022/05/27 06:55:48;;;;;;;2.00;1.70;;;22.50;92.20;;;;;;6122112;28;88164;-64
2022/05/27 06:58:51;;;;;;;1.88;1.67;;;22.40;92.20;;;;;;6135107;28;89138;-65
2022/05/27 07:01:54;;;;;;;2.22;1.70;;;22.40;92.30;;;;;;6134464;28;89127;-64
2022/05/27 07:04:56;;;;;;;1.88;1.75;;;22.40;92.30;;;;;;6136080;28;88761;-63
2022/05/27 07:07:59;;;;;;;2.03;1.60;;;22.50;92.80;;;;;;6128493;28;89081;-64
2022/05/27 07:11:01;;;;;;;2.63;1.50;;;22.50;92.50;;;;;;6120770;28;89253;-63
2022/05/27 07:14:04;;;;;;;2.92;1.70;;;22.50;92.50;;;;;;6121034;28;90032;-64
2022/05/27 07:17:07;;;;;;;1.70;1.60;;;22.40;92.50;;;;;;6130498;28;89133;-64
2022/05/27 07:20:10;;;;;;;1.55;1.42;;;22.40;92.50;;;;;;6133846;28;89193;-64
2022/05/27 07:23:12;;;;;;;2.05;1.70;;;22.40;92.40;;;;;;6135358;28;89194;-64
2022/05/27 07:26:14;;;;;;;1.80;1.40;;;22.50;92.30;;;;;;6135425;28;89165;-64
2022/05/27 07:29:18;;;;;;;2.08;1.63;;;22.40;92.20;;;;;;6133597;28;88139;-64
2022/05/27 07:32:20;;;;;;;2.80;1.70;;;22.50;92.00;;;;;;6132652;28;88856;-64
2022/05/27 07:35:23;;;;;;;2.00;1.80;;;22.40;92.00;;;;;;6126870;28;88335;-64
2022/05/27 07:38:25;;;;;;;8.57;5.57;;;22.40;92.00;;;;;;6123726;28;89090;-64
2022/05/27 07:41:28;;;;;;;7.50;5.20;;;22.40;92.00;;;;;;6116297;28;89008;-64
2022/05/27 07:44:31;;;;;;;11.13;5.13;;;22.50;92.10;;;;;;6118844;28;89953;-64
2022/05/27 07:47:33;;;;;;;8.50;4.65;;;22.40;92.10;;;;;;6116694;28;89468;-64
2022/05/27 07:50:36;;;;;;;9.40;5.10;;;22.40;92.20;;;;;;6119837;28;89097;-65
2022/05/27 07:53:38;;;;;;;8.32;3.72;;;22.40;91.80;;;;;;6121925;28;89345;-64
2022/05/27 07:56:42;;;;;;;7.93;3.83;;;22.40;92.10;;;;;;6132030;28;89161;-64
2022/05/27 07:59:45;;;;;;;6.53;3.47;;;22.40;91.90;;;;;;6130304;28;88151;-64
2022/05/27 08:02:48;;;;;;;4.95;3.28;;;22.40;91.80;;;;;;6131422;28;89474;-65
2022/05/27 08:05:50;;;;;;;6.18;3.20;;;22.40;91.70;;;;;;6122159;28;88411;-65
2022/05/27 08:08:52;;;;;;;7.05;3.05;;;22.50;91.80;;;;;;6134112;28;89072;-65
2022/05/27 08:11:55;;;;;;;5.63;3.08;;;22.50;91.70;;;;;;6133109;28;89142;-65
2022/05/27 08:14:58;;;;;;;4.72;3.15;;;22.50;92.00;;;;;;6109449;28;89938;-65
2022/05/27 08:18:00;;;;;;;5.25;3.00;;;22.50;92.00;;;;;;6121991;28;89243;-64
2022/05/27 08:21:02;;;;;;;6.32;2.60;;;22.50;92.00;;;;;;6121267;28;87974;-65
2022/05/27 08:24:07;;;;;;;4.18;2.70;;;22.50;92.00;;;;;;6124232;28;88249;-65
2022/05/27 08:27:09;;;;;;;6.18;3.05;;;22.50;92.00;;;;;;6134489;28;90020;-65
2022/05/27 08:30:15;;;;;;;4.07;2.78;;;22.50;92.00;;;;;;6134329;28;89097;-65
2022/05/27 08:33:17;;;;;;;4.20;2.75;;;22.50;92.00;;;;;;6121159;28;89486;-64
2022/05/27 08:39:46;;;;;;;4.28;2.55;;;22.50;91.90;;;;;;6134602;28;87369;-65
2022/05/27 08:42:57;;;;;;;4.78;2.97;;;22.40;91.90;;;;;;6133453;28;89058;-65
2022/05/27 08:46:11;;;;;;;4.82;2.75;;;22.50;91.80;;;;;;6127623;28;90006;-65
2022/05/27 08:49:17;;;;;;;3.85;2.65;;;22.50;91.80;;;;;;6130382;28;89345;-65
2022/05/27 08:52:25;;;;;;;4.78;2.40;;;22.50;91.80;;;;;;6120478;28;87929;-64
2022/05/27 09:02:20;;;;;;;3.72;1.90;;;22.50;91.70;;;;;;6109781;28;88167;-65
2022/05/27 09:05:27;;;;;;;3.08;2.40;;;22.50;91.70;;;;;;6109437;28;89151;-65
2022/05/27 09:08:30;;;;;;;2.40;2.20;;;22.50;91.70;;;;;;6122736;28;88609;-65
2022/05/27 09:11:43;;;;;;;4.25;2.20;;;22.50;91.80;;;;;;6111370;28;89145;-65
2022/05/27 09:14:55;;;;;;;3.10;2.00;;;22.50;91.70;;;;;;6129558;28;89113;-65
2022/05/27 09:18:06;;;;;;;2.40;1.90;;;22.40;91.50;;;;;;6108028;28;88884;-65
2022/05/27 09:21:17;;;;;;;2.97;1.92;;;22.50;91.50;;;;;;6109205;28;89036;-65
2022/05/27 09:24:42;;;;;;;2.60;2.00;;;22.40;91.50;;;;;;6123002;28;88497;-65
2022/05/27 09:28:00;;;;;;;2.80;2.20;;;22.40;91.40;;;;;;6120305;28;89036;-65
2022/05/27 09:31:06;;;;;;;2.25;1.83;;;22.50;91.80;;;;;;6115134;28;88035;-65
2022/05/27 09:34:12;;;;;;;2.15;1.83;;;22.40;91.20;;;;;;6126207;28;89076;-66
2022/05/27 09:37:24;;;;;;;3.00;2.10;;;22.40;91.20;;;;;;6131867;28;87955;-65
2022/05/27 09:40:34;;;;;;;2.03;1.63;;;22.50;91.10;;;;;;6129507;28;87507;-65
2022/05/27 09:43:41;;;;;;;2.08;1.80;;;22.50;91.10;;;;;;6136842;28;89205;-65
2022/05/27 09:46:43;;;;;;;2.70;1.80;;;22.50;91.00;;;;;;6128609;28;89294;-65
2022/05/27 09:49:53;;;;;;;1.65;1.52;;;22.50;91.00;;;;;;6128207;28;90131;-65
2022/05/27 09:52:58;;;;;;;3.58;1.60;;;22.50;90.90;;;;;;6113064;28;89099;-65
2022/05/27 09:56:04;;;;;;;1.70;1.58;;;22.50;90.90;;;;;;6112581;28;89198;-65
2022/05/27 09:59:20;;;;;;;2.45;1.60;;;22.40;91.00;;;;;;6112755;28;89130;-65
2022/05/27 10:02:28;;;;;;;1.77;1.50;;;22.50;90.90;;;;;;6112960;28;89067;-65
2022/05/27 10:05:32;;;;;;;1.50;1.35;;;22.50;90.90;;;;;;6124358;28;89460;-65
2022/05/27 10:08:38;;;;;;;2.15;1.48;;;22.50;90.90;;;;;;6130327;28;88011;-65
2022/05/27 10:11:50;;;;;;;1.70;1.60;;;22.50;91.00;;;;;;6135374;28;88384;-65
2022/05/27 10:14:52;;;;;;;1.63;1.52;;;22.50;91.00;;;;;;6135798;28;89176;-65
2022/05/27 10:17:54;;;;;;;1.70;1.58;;;22.40;91.00;;;;;;6121048;28;89424;-65
2022/05/27 10:21:01;;;;;;;1.95;1.60;;;22.40;90.90;;;;;;6111849;28;90020;-65
2022/05/27 10:24:20;;;;;;;2.25;1.80;;;22.50;91.00;;;;;;6125313;28;89093;-65
2022/05/27 10:27:22;;;;;;;1.73;1.48;;;22.50;91.00;;;;;;6124768;28;89123;-65
2022/05/27 10:30:27;;;;;;;1.65;1.48;;;22.50;90.90;;;;;;6135696;28;89148;-65
2022/05/27 10:33:40;;;;;;;2.20;1.80;;;22.50;90.90;;;;;;6136446;28;87917;-65
2022/05/27 10:36:54;;;;;;;1.85;1.60;;;22.50;90.80;;;;;;6136461;28;89320;-65
2022/05/27 10:40:10;;;;;;;1.67;1.42;;;22.50;90.80;;;;;;6124435;28;89322;-65
2022/05/27 10:43:37;;;;;;;1.98;1.38;;;22.50;90.80;;;;;;6122338;28;87688;-64
2022/05/27 10:46:45;;;;;;;1.75;1.33;;;22.50;90.90;;;;;;6126836;28;89088;-65
2022/05/27 10:50:06;;;;;;;2.45;1.40;;;22.50;90.80;;;;;;6136142;28;87053;-65
2022/05/27 10:53:38;;;;;;;1.65;1.50;;;22.50;90.90;;;;;;6112410;28;90366;-65
2022/05/27 11:02:04;;;;;;;1.83;1.58;;;22.40;90.80;;;;;;6124254;28;89167;-65
2022/05/27 11:03:54;;;;;;;1.40;1.30;;;22.40;90.90;;;;;;6115459;28;87370;-65
2022/05/27 11:07:06;;;;;;;1.60;1.40;;;22.40;90.80;;;;;;6120477;28;89096;-65
2022/05/27 11:10:25;;;;;;;1.30;1.20;;;22.50;90.90;;;;;;6135412;28;89015;-66
2022/05/27 11:17:22;;;;;;;1.50;1.30;;;22.50;90.80;;;;;;6124293;28;86676;-65
2022/05/27 11:20:45;;;;;;;1.38;1.25;;;22.50;90.80;;;;;;6134089;28;89136;-66
2022/05/27 11:24:25;;;;;;;1.55;1.33;;;22.50;90.80;;;;;;6124316;28;88284;-65
2022/05/27 11:27:40;;;;;;;1.92;1.50;;;22.50;90.70;;;;;;6100675;28;90115;-65
2022/05/27 11:30:51;;;;;;;1.63;1.35;;;22.50;90.70;;;;;;6121928;28;89174;-65
2022/05/27 11:34:05;;;;;;;1.58;1.33;;;22.50;90.80;;;;;;6132480;28;89117;-65
2022/05/27 11:37:29;;;;;;;1.45;1.35;;;22.50;90.70;;;;;;6131254;28;91293;-65
2022/05/27 11:40:42;;;;;;;2.05;1.20;;;22.50;90.70;;;;;;6120427;28;89331;-65
2022/05/27 11:43:53;;;;;;;1.30;1.20;;;22.50;90.90;;;;;;6121764;28;88769;-66
2022/05/27 11:47:26;;;;;;;1.83;1.23;;;22.50;90.90;;;;;;6124834;28;88111;-65
2022/05/27 11:51:05;;;;;;;3.45;1.30;;;22.50;91.00;;;;;;6123260;28;89146;-66
2022/05/27 11:54:26;;;;;;;1.67;1.38;;;22.50;91.00;;;;;;6117860;28;89165;-66
2022/05/27 11:57:39;;;;;;;1.85;1.30;;;22.50;91.00;;;;;;6130666;28;88087;-66
2022/05/27 12:00:46;;;;;;;1.40;1.20;;;22.50;91.00;;;;;;6119114;28;89970;-65
2022/05/27 12:03:55;;;;;;;1.58;1.20;;;22.50;91.00;;;;;;6130658;28;89234;-65
2022/05/27 12:07:05;;;;;;;2.40;1.40;;;22.50;91.00;;;;;;6113330;28;89141;-65
2022/05/27 12:10:19;;;;;;;1.38;1.20;;;22.50;91.00;;;;;;6130970;28;87980;-65
2022/05/27 12:13:27;;;;;;;1.70;1.60;;;22.50;91.00;;;;;;6132909;28;89162;-65
2022/05/27 12:16:35;;;;;;;2.55;1.35;;;22.50;91.00;;;;;;6133320;28;89159;-65
2022/05/27 12:19:42;;;;;;;1.88;1.38;;;22.50;90.90;;;;;;6132656;28;89192;-66
2022/05/27 12:22:46;;;;;;;1.20;1.10;;;22.50;91.30;;;;;;6134477;28;88288;-65
2022/05/27 12:25:52;;;;;;;1.85;1.30;;;22.50;90.90;;;;;;6123419;28;89141;-65
2022/05/27 12:28:57;;;;;;;1.58;1.20;;;22.50;90.80;;;;;;6109850;28;89371;-65
2022/05/27 12:32:00;;;;;;;1.63;1.27;;;22.50;90.80;;;;;;6109575;28;90437;-65
2022/05/27 12:35:21;;;;;;;1.90;1.30;;;22.50;90.90;;;;;;6121899;28;89144;-65
2022/05/27 12:38:29;;;;;;;1.60;1.20;;;22.50;90.80;;;;;;6113677;28;89169;-65
2022/05/27 12:41:36;;;;;;;1.25;1.13;;;22.50;90.80;;;;;;6132809;28;88780;-65
2022/05/27 12:44:41;;;;;;;1.10;1.00;;;22.50;90.90;;;;;;6127462;28;89045;-65
2022/05/27 12:47:48;;;;;;;1.63;1.25;;;22.50;90.90;;;;;;6114292;28;89078;-65
2022/05/27 12:50:55;;;;;;;1.30;1.20;;;22.50;90.80;;;;;;6119337;28;89562;-65
2022/05/27 12:53:58;;;;;;;1.40;1.23;;;22.50;90.70;;;;;;6116568;28;88489;-64
2022/05/27 13:03:57;;;;;;;1.58;1.30;;;22.50;90.80;;;;;;6126667;28;88308;-65
2022/05/27 13:07:06;;;;;;;1.85;1.42;;;22.50;90.80;;;;;;6123557;28;88007;-65
2022/05/27 13:10:53;;;;;;;2.00;1.30;;;22.50;91.20;;;;;;6119858;28;90173;-64
2022/05/27 13:14:12;;;;;;;2.63;1.20;;;22.50;91.70;;;;;;6126308;28;89185;-64
2022/05/27 13:17:34;;;;;;;1.92;1.30;;;22.50;91.60;;;;;;6123075;28;89419;-64
2022/05/27 13:20:52;;;;;;;2.25;1.30;;;22.60;91.70;;;;;;6115005;28;89099;-64
2022/05/27 13:23:58;;;;;;;1.48;1.30;;;22.60;91.80;;;;;;6129513;28;89060;-64
2022/05/27 13:27:05;;;;;;;1.50;1.30;;;22.50;91.80;;;;;;6137143;28;88326;-64
2022/05/27 13:30:10;;;;;;;1.92;1.33;;;22.50;91.70;;;;;;6133022;28;89118;-64
2022/05/27 13:33:14;;;;;;;7.07;1.90;;;22.50;92.00;;;;;;6123460;28;89162;-65
2022/05/27 13:36:23;;;;;;;9.68;2.40;;;22.60;92.60;;;;;;6130663;28;89990;-65
2022/05/27 13:39:30;;;;;;;12.75;2.92;;;22.60;94.50;;;;;;6137048;28;89141;-65
2022/05/27 13:42:35;;;;;;;10.63;2.42;;;22.60;95.80;;;;;;6135750;28;88790;-64
2022/05/27 13:45:44;;;;;;;7.10;2.30;;;22.60;95.80;;;;;;6133500;28;89018;-63
2022/05/27 13:48:50;;;;;;;7.13;2.45;;;22.60;95.80;;;;;;6134641;28;88954;-64
2022/05/27 13:51:53;;;;;;;5.40;1.95;;;22.60;95.40;;;;;;6125027;28;89175;-64
2022/05/27 13:55:04;;;;;;;6.22;2.10;;;22.60;95.10;;;;;;6122993;28;89400;-65
2022/05/27 13:58:07;;;;;;;6.18;2.20;;;22.60;94.90;;;;;;6134442;28;88901;-64
2022/05/27 14:01:10;;;;;;;6.50;2.30;;;22.60;95.00;;;;;;6130516;28;89044;-64
2022/05/27 14:04:28;;;;;;;4.05;2.00;;;22.60;95.20;;;;;;6127606;28;87941;-65
2022/05/27 14:07:35;;;;;;;4.95;1.83;;;22.60;95.10;;;;;;6119021;28;90095;-65
2022/05/27 14:10:43;;;;;;;4.07;1.80;;;22.60;94.90;;;;;;6126549;28;88879;-65
2022/05/27 14:13:51;;;;;;;3.20;1.80;;;22.60;94.80;;;;;;6115013;28;89093;-65
2022/05/27 14:16:54;;;;;;;12.15;2.85;;;22.60;94.80;;;;;;6127830;28;89107;-64
2022/05/27 14:20:00;;;;;;;12.38;3.28;;;22.60;97.50;;;;;;6121691;28;87926;-64
2022/05/27 14:23:11;;;;;;;12.48;2.75;;;22.60;98.70;;;;;;6116667;28;89104;-64
2022/05/27 14:26:15;;;;;;;12.02;2.95;;;22.60;99.90;;;;;;6124399;28;89373;-65
2022/05/27 14:29:21;;;;;;;10.77;3.17;;;22.60;99.90;;;;;;6135950;28;87353;-64
2022/05/27 14:32:24;;;;;;;9.65;3.13;;;22.60;99.90;;;;;;6127071;28;89063;-65
2022/05/27 14:35:30;;;;;;;5.57;2.40;;;22.60;99.90;;;;;;6130806;28;89100;-64
2022/05/27 14:38:36;;;;;;;9.68;2.55;;;22.60;99.90;;;;;;6130851;28;90048;-65
2022/05/27 14:41:43;;;;;;;8.18;2.35;;;22.60;99.90;;;;;;6126348;28;88040;-65
2022/05/27 14:44:47;;;;;;;8.95;2.28;;;22.60;99.80;;;;;;6133030;28;88946;-65
2022/05/27 14:47:49;;;;;;;7.50;2.15;;;22.70;99.10;;;;;;6121516;28;88012;-65
2022/05/27 14:50:52;;;;;;;5.90;1.92;;;22.60;98.40;;;;;;6122795;28;88991;-65
2022/05/27 14:54:07;;;;;;;5.32;2.00;;;22.70;98.00;;;;;;6119873;28;89519;-65
2022/05/27 14:57:20;;;;;;;5.95;1.90;;;22.60;97.40;;;;;;6128039;28;88024;-65
2022/05/27 15:00:30;;;;;;;8.77;1.90;;;22.60;96.90;;;;;;6119913;28;88381;-65
2022/05/27 15:03:35;;;;;;;5.45;2.03;;;22.70;96.50;;;;;;6123266;28;89109;-65
2022/05/27 15:06:38;;;;;;;5.72;1.73;;;22.60;96.00;;;;;;6126208;28;87976;-64
2022/05/27 15:09:41;;;;;;;4.47;1.70;;;22.60;95.90;;;;;;6134101;28;89205;-65
2022/05/27 15:12:43;;;;;;;4.78;1.58;;;22.60;95.40;;;;;;6111974;28;89056;-65
2022/05/27 15:15:46;;;;;;;3.28;1.50;;;22.70;95.10;;;;;;6135470;28;91022;-65
2022/05/27 15:18:51;;;;;;;3.40;1.60;;;22.60;95.20;;;;;;6135739;28;89056;-65
2022/05/27 15:22:02;;;;;;;4.05;1.85;;;22.60;95.00;;;;;;6134771;28;89065;-65
2022/05/27 15:25:07;;;;;;;3.17;1.58;;;22.60;95.20;;;;;;6134733;28;89508;-65
2022/05/27 15:34:58;;;;;;;2.45;1.40;;;22.60;94.50;;;;;;6133996;28;87381;-65
2022/05/27 15:38:01;;;;;;;4.13;1.50;;;22.60;94.20;;;;;;6134598;28;87935;-64
2022/05/27 15:41:06;;;;;;;2.92;1.45;;;22.70;94.40;;;;;;6133159;28;90120;-65
2022/05/27 15:44:08;;;;;;;3.72;1.80;;;22.60;94.20;;;;;;6132532;28;89093;-65
2022/05/27 15:47:10;;;;;;;2.92;1.60;;;22.60;94.20;;;;;;6124132;28;89502;-64
2022/05/27 15:50:15;;;;;;;3.30;1.42;;;22.60;94.10;;;;;;6121075;28;89980;-65
2022/05/27 15:53:19;;;;;;;3.45;1.50;;;22.70;94.20;;;;;;6121912;28;87061;-64
2022/05/27 15:56:22;;;;;;;2.05;1.60;;;22.60;94.00;;;;;;6109171;28;89357;-65
2022/05/27 15:59:25;;;;;;;3.45;1.67;;;22.60;94.00;;;;;;6121405;28;89161;-65
2022/05/27 16:02:27;;;;;;;2.75;1.30;;;22.60;93.90;;;;;;6116696;28;88068;-65
2022/05/27 16:05:29;;;;;;;2.75;1.40;;;22.60;93.80;;;;;;6119623;28;89015;-65
2022/05/27 16:08:32;;;;;;;2.78;1.60;;;22.60;93.70;;;;;;6115459;28;89306;-65
2022/05/27 16:11:36;;;;;;;3.60;1.58;;;22.70;93.60;;;;;;6107824;28;89934;-65
2022/05/27 16:14:38;;;;;;;2.92;1.60;;;22.60;93.60;;;;;;6121192;28;89126;-64
2022/05/27 16:17:52;;;;;;;2.28;1.30;;;22.60;93.50;;;;;;6108239;28;89131;-64
2022/05/27 16:20:54;;;;;;;1.90;1.45;;;22.60;93.50;;;;;;6121613;28;89016;-65
2022/05/27 16:23:56;;;;;;;4.93;1.70;;;22.60;93.40;;;;;;6132509;28;88422;-65
2022/05/27 16:27:00;;;;;;;2.92;1.60;;;22.60;93.40;;;;;;6130668;28;88907;-64
2022/05/27 16:30:02;;;;;;;2.28;1.45;;;22.60;93.40;;;;;;6121861;28;88995;-64
2022/05/27 16:33:04;;;;;;;1.83;1.35;;;22.60;93.30;;;;;;6129494;28;88487;-65
2022/05/27 16:36:07;;;;;;;1.90;1.50;;;22.60;93.20;;;;;;6131446;28;89466;-65
2022/05/27 16:39:09;;;;;;;4.78;1.50;;;22.60;93.20;;;;;;6114038;28;89062;-65
2022/05/27 16:42:12;;;;;;;1.45;1.30;;;22.60;93.20;;;;;;6083603;28;1215200;-64
2022/05/27 16:45:16;;;;;;;1.67;1.40;;;22.60;93.10;;;;;;6131163;28;89024;-64
2022/05/27 16:48:19;;;;;;;1.85;1.40;;;22.60;93.00;;;;;;6126831;28;88981;-65
2022/05/27 16:51:21;;;;;;;2.38;1.50;;;22.60;92.90;;;;;;6125150;28;89095;-65
2022/05/27 16:54:23;;;;;;;1.98;1.45;;;22.60;92.80;;;;;;6124573;28;87814;-64
2022/05/27 16:57:26;;;;;;;2.88;1.40;;;22.60;92.70;;;;;;6131236;28;89310;-65
2022/05/27 17:00:31;;;;;;;2.75;1.40;;;22.60;92.40;;;;;;6117070;28;89125;-64
2022/05/27 17:03:33;;;;;;;2.38;1.40;;;22.60;92.30;;;;;;6125414;28;88634;-64
2022/05/27 17:06:35;;;;;;;2.63;1.30;;;22.60;92.20;;;;;;6138001;28;89290;-64
2022/05/27 17:09:37;;;;;;;2.28;1.33;;;22.60;92.10;;;;;;6136905;28;89410;-64
2022/05/27 17:12:41;;;;;;;1.40;1.30;;;22.60;92.00;;;;;;6113876;28;90071;-65
2022/05/27 17:15:43;;;;;;;2.20;1.45;;;22.60;92.00;;;;;;6113076;28;89124;-64
2022/05/27 17:18:46;;;;;;;1.77;1.50;;;22.60;91.90;;;;;;6126562;28;89501;-65
2022/05/27 17:21:48;;;;;;;1.60;1.40;;;22.60;91.80;;;;;;6134171;28;89406;-65
2022/05/27 17:24:50;;;;;;;1.92;1.55;;;22.60;91.70;;;;;;6136826;28;89179;-65
2022/05/27 17:27:54;;;;;;;3.53;1.63;;;22.60;91.70;;;;;;6136855;28;89022;-65
2022/05/27 17:30:56;;;;;;;1.55;1.38;;;22.60;91.70;;;;;;6137398;28;89410;-65
2022/05/27 17:33:58;;;;;;;2.67;1.60;;;22.60;91.60;;;;;;6134309;28;88377;-65
2022/05/27 17:37:00;;;;;;;2.90;1.70;;;22.60;91.50;;;;;;6126983;28;89481;-64
2022/05/27 17:40:05;;;;;;;2.05;1.60;;;22.60;91.40;;;;;;6136610;28;88970;-64
2022/05/27 17:43:08;;;;;;;1.75;1.55;;;22.60;91.30;;;;;;6124610;28;88889;-64
2022/05/27 17:46:12;;;;;;;2.08;1.67;;;22.60;91.40;;;;;;6131105;28;89298;-65
2022/05/27 17:52:34;;;;;;;1.77;1.42;;;22.60;91.20;;;;;;6136988;28;87224;-64
2022/05/27 17:55:37;;;;;;;2.33;1.65;;;22.60;91.20;;;;;;6133016;28;89408;-64
2022/05/27 17:58:40;;;;;;;2.05;1.67;;;22.60;91.20;;;;;;6113335;28;89289;-65
2022/05/27 18:01:42;;;;;;;2.05;1.60;;;22.60;91.10;;;;;;6135980;28;89269;-65
2022/05/27 18:04:44;;;;;;;2.75;1.65;;;22.60;91.10;;;;;;6113710;28;88508;-64
2022/05/27 18:07:46;;;;;;;2.58;1.48;;;22.60;91.20;;;;;;6113090;28;89475;-65
2022/05/27 18:10:48;;;;;;;2.60;1.58;;;22.60;91.10;;;;;;6135175;28;89350;-64
2022/05/27 18:13:52;;;;;;;2.20;1.60;;;22.60;91.10;;;;;;6114398;28;90154;-65
2022/05/27 18:16:55;;;;;;;2.10;1.60;;;22.60;91.10;;;;;;6112562;28;88142;-64
2022/05/27 18:19:57;;;;;;;3.03;1.63;;;22.60;91.10;;;;;;6131652;28;89060;-65
2022/05/27 18:22:59;;;;;;;2.67;1.60;;;22.60;91.00;;;;;;6119087;28;87905;-65
2022/05/27 18:26:02;;;;;;;1.58;1.40;;;22.60;91.00;;;;;;6128336;28;89594;-65
2022/05/27 18:29:05;;;;;;;2.28;1.60;;;22.50;90.90;;;;;;6135884;28;89034;-65
2022/05/27 18:32:08;;;;;;;2.05;1.50;;;22.60;91.30;;;;;;6123055;28;89458;-65
2022/05/27 18:35:10;;;;;;;1.63;1.40;;;22.60;90.80;;;;;;6125141;28;88690;-64
2022/05/27 18:38:12;;;;;;;1.80;1.33;;;22.60;90.80;;;;;;6123311;28;89091;-65
2022/05/27 18:41:14;;;;;;;1.83;1.50;;;22.60;90.80;;;;;;6113340;28;88961;-65
2022/05/27 18:44:18;;;;;;;2.45;1.50;;;22.60;90.70;;;;;;6129424;28;90081;-64
2022/05/27 18:47:20;;;;;;;1.80;1.50;;;22.60;90.70;;;;;;6125101;28;89352;-64
2022/05/27 18:50:22;;;;;;;3.47;1.50;;;22.60;90.70;;;;;;6111714;28;89375;-65
2022/05/27 18:53:24;;;;;;;1.60;1.50;;;22.60;90.70;;;;;;6124627;28;89116;-65
2022/05/27 18:56:26;;;;;;;1.98;1.42;;;22.50;90.70;;;;;;6135051;28;89124;-65
2022/05/27 18:59:30;;;;;;;2.15;1.40;;;22.50;90.60;;;;;;6113792;28;89075;-65
2022/05/27 19:02:32;;;;;;;1.40;1.30;;;22.50;90.70;;;;;;6124310;28;89107;-64
2022/05/27 19:05:37;;;;;;;2.30;1.50;;;22.50;90.70;;;;;;6118709;28;88297;-64
2022/05/27 19:08:39;;;;;;;1.48;1.38;;;22.50;90.70;;;;;;6121484;28;89081;-64
2022/05/27 19:11:42;;;;;;;1.73;1.30;;;22.60;90.70;;;;;;6118243;28;89234;-65
2022/05/27 19:14:47;;;;;;;2.70;1.40;;;22.50;90.70;;;;;;6110693;28;90318;-64
2022/05/27 19:17:49;;;;;;;1.90;1.40;;;22.50;90.70;;;;;;6111707;28;87640;-65
2022/05/27 19:24:10;;;;;;;1.83;1.50;;;22.60;90.70;;;;;;6135559;28;87189;-64
2022/05/27 19:27:12;;;;;;;2.85;1.40;;;22.50;90.70;;;;;;6135313;28;88062;-64
2022/05/27 19:30:16;;;;;;;1.38;1.27;;;22.50;90.70;;;;;;6136063;28;88972;-64
2022/05/27 19:33:18;;;;;;;2.47;1.40;;;22.50;90.70;;;;;;6111472;28;88953;-64
2022/05/27 19:36:22;;;;;;;1.77;1.25;;;22.50;90.70;;;;;;6134846;28;88336;-65
2022/05/27 19:39:24;;;;;;;1.85;1.38;;;22.60;90.70;;;;;;6113699;28;89094;-64
2022/05/27 19:42:26;;;;;;;1.42;1.33;;;22.50;90.70;;;;;;6129891;28;89076;-64
2022/05/27 19:45:30;;;;;;;1.75;1.38;;;22.50;90.70;;;;;;6121105;28;89222;-64
2022/05/27 19:48:32;;;;;;;1.95;1.52;;;22.60;90.70;;;;;;6115131;28;87983;-64
2022/05/27 19:51:36;;;;;;;1.30;1.20;;;22.60;90.70;;;;;;6123594;28;89439;-65
2022/05/27 19:54:39;;;;;;;1.50;1.40;;;22.50;90.70;;;;;;6132360;28;88930;-64
2022/05/27 20:01:02;;;;;;;1.30;1.20;;;22.50;90.70;;;;;;6122114;28;87354;-65
2022/05/27 20:07:26;;;;;;;1.50;1.40;;;22.50;90.80;;;;;;6122460;28;86521;-64
2022/05/27 20:10:30;;;;;;;1.38;1.27;;;22.50;90.80;;;;;;6114455;28;89064;-65
2022/05/27 20:13:34;;;;;;;2.13;1.40;;;22.50;90.80;;;;;;6129222;28;89081;-64
2022/05/27 20:16:42;;;;;;;1.45;1.35;;;22.50;90.80;;;;;;6120545;28;90296;-64
2022/05/27 20:19:45;;;;;;;1.40;1.30;;;22.50;90.80;;;;;;6133670;28;89549;-65
2022/05/27 20:22:47;;;;;;;1.40;1.30;;;22.60;90.80;;;;;;6131131;28;87898;-64
2022/05/27 20:25:49;;;;;;;1.40;1.30;;;22.50;90.80;;;;;;6121878;28;89124;-65
2022/05/27 20:28:51;;;;;;;1.50;1.40;;;22.50;90.80;;;;;;6121053;28;89607;-64
2022/05/27 20:31:55;;;;;;;1.65;1.50;;;22.50;90.70;;;;;;6122639;28;89020;-65
2022/05/27 20:34:57;;;;;;;1.52;1.42;;;22.50;90.70;;;;;;6118613;28;89003;-65
2022/05/27 20:37:58;;;;;;;1.95;1.52;;;22.50;90.80;;;;;;6125001;28;88350;-65
2022/05/27 20:41:00;;;;;;;1.40;1.30;;;22.50;90.80;;;;;;6132966;28;89016;-65
2022/05/27 20:44:02;;;;;;;2.00;1.40;;;22.50;91.20;;;;;;6126917;28;89188;-64
2022/05/27 20:47:07;;;;;;;1.90;1.30;;;22.50;91.20;;;;;;6124627;28;90131;-64
2022/05/27 20:50:09;;;;;;;2.40;1.23;;;22.60;91.10;;;;;;6121461;28;89448;-64
2022/05/27 20:53:11;;;;;;;1.92;1.30;;;22.50;90.80;;;;;;6120963;28;89400;-65
2022/05/27 20:56:13;;;;;;;1.35;1.17;;;22.50;90.60;;;;;;6133984;28;90535;-66
2022/05/27 20:59:18;;;;;;;1.63;1.20;;;22.60;90.40;;;;;;6113290;28;89086;-65
2022/05/27 21:02:22;;;;;;;2.10;1.13;;;22.60;90.30;;;;;;6130650;28;89089;-65
2022/05/27 21:05:27;;;;;;;1.23;1.13;;;22.60;90.00;;;;;;6127414;28;89343;-65
2022/05/27 21:11:50;;;;;;;1.35;1.02;;;22.60;89.30;;;;;;6126239;28;87404;-65
2022/05/27 21:14:51;;;;;;;4.65;1.30;;;22.60;89.30;;;;;;6122912;28;88078;-65
2022/05/27 21:17:55;;;;;;;1.20;1.10;;;22.50;89.60;;;;;;6120542;28;90012;-65
2022/05/27 21:20:57;;;;;;;1.92;1.10;;;22.50;89.70;;;;;;6122170;28;89000;-65
2022/05/27 21:23:59;;;;;;;1.38;1.20;;;22.50;90.00;;;;;;6119004;28;89022;-65
2022/05/27 21:27:01;;;;;;;1.20;1.10;;;22.50;90.10;;;;;;6132032;28;89081;-65
2022/05/27 21:30:04;;;;;;;1.35;1.10;;;22.50;90.20;;;;;;6125371;28;89098;-65
2022/05/27 21:33:08;;;;;;;1.60;1.20;;;22.50;90.40;;;;;;6119161;28;89140;-65
2022/05/27 21:36:11;;;;;;;1.63;1.17;;;22.50;90.40;;;;;;6135889;28;89438;-64
2022/05/27 21:39:16;;;;;;;1.30;1.20;;;22.50;90.40;;;;;;6116035;28;88688;-65
2022/05/27 21:42:18;;;;;;;0.98;0.98;;;22.50;90.60;;;;;;6123166;28;91271;-65
2022/05/27 21:45:20;;;;;;;1.05;1.00;;;22.50;90.60;;;;;;6119739;28;89255;-65
2022/05/27 21:48:23;;;;;;;1.15;1.02;;;22.50;90.60;;;;;;6117372;28;90291;-65
2022/05/27 21:51:26;;;;;;;1.10;1.00;;;22.50;90.60;;;;;;6117300;28;89141;-66
2022/05/27 21:54:28;;;;;;;1.33;0.93;;;22.40;90.70;;;;;;6116267;28;89157;-66
2022/05/27 21:57:30;;;;;;;1.50;1.17;;;22.40;90.80;;;;;;6118595;28;89034;-65
2022/05/27 22:00:35;;;;;;;1.48;1.20;;;22.50;90.90;;;;;;6118740;28;89101;-65
2022/05/27 22:03:38;;;;;;;1.30;1.20;;;22.50;91.00;;;;;;6117808;28;89575;-66
2022/05/27 22:06:40;;;;;;;1.25;1.15;;;22.50;91.10;;;;;;6110143;28;89110;-66
